createdAt,value
2019-02-25T00:01:00.611Z,94.80
2019-02-25T00:03:48.673Z,95.00
2019-02-25T00:06:36.445Z,95.30
2019-02-25T00:09:24.783Z,95.00
2019-02-25T00:12:12.556Z,95.10
2019-02-25T00:15:00.374Z,95.10
2019-02-25T00:17:48.152Z,95.20
2019-02-25T00:20:35.707Z,95.20
2019-02-25T00:23:23.371Z,95.10
2019-02-25T00:26:10.991Z,94.90
2019-02-25T00:28:58.662Z,95.00
2019-02-25T00:31:46.552Z,94.90
2019-02-25T00:34:34.445Z,94.90
2019-02-25T00:37:22.052Z,95.00
2019-02-25T00:40:09.874Z,95.10
2019-02-25T00:42:57.912Z,95.10
2019-02-25T00:45:45.853Z,95.10
2019-02-25T00:48:33.481Z,95.00
2019-02-25T00:51:21.488Z,94.90
2019-02-25T00:54:09.339Z,95.00
2019-02-25T00:56:56.833Z,95.20
2019-02-25T00:59:44.692Z,95.40
2019-02-25T01:02:32.420Z,95.40
2019-02-25T01:05:20.540Z,95.40
2019-02-25T01:08:08.573Z,95.50
2019-02-25T01:10:56.245Z,95.50
2019-02-25T01:13:44.042Z,95.50
2019-02-25T01:16:32.050Z,95.50
2019-02-25T01:19:19.652Z,95.60
2019-02-25T01:22:07.356Z,95.50
2019-02-25T01:24:55.274Z,95.50
2019-02-25T01:27:43.196Z,95.60
2019-02-25T01:30:30.944Z,95.60
2019-02-25T01:33:18.972Z,95.60
2019-02-25T01:36:06.470Z,95.50
2019-02-25T01:38:54.598Z,95.60
2019-02-25T01:41:42.236Z,95.60
2019-02-25T01:44:30.161Z,95.70
2019-02-25T01:47:18.495Z,95.70
2019-02-25T01:50:06.677Z,95.50
2019-02-25T01:52:54.465Z,95.50
2019-02-25T01:55:42.103Z,95.50
2019-02-25T01:58:30.186Z,95.60
2019-02-25T02:01:17.491Z,95.50
2019-02-25T02:04:04.977Z,95.40
2019-02-25T02:06:52.556Z,95.50
2019-02-25T02:09:40.666Z,95.50
2019-02-25T02:12:28.356Z,95.50
2019-02-25T02:15:16.500Z,95.70
2019-02-25T02:18:04.693Z,95.70
2019-02-25T02:20:53.391Z,95.70
2019-02-25T02:23:41.209Z,95.60
2019-02-25T02:26:29.325Z,95.70
2019-02-25T02:29:17.357Z,95.70
2019-02-25T02:32:05.316Z,95.80
2019-02-25T02:34:52.690Z,95.70
2019-02-25T02:37:40.116Z,95.80
2019-02-25T02:40:28.095Z,96.10
2019-02-25T02:43:16.298Z,96.20
2019-02-25T02:46:47.009Z,96.40
2019-02-25T02:49:34.723Z,97.00
2019-02-25T02:52:22.726Z,96.90
2019-02-25T02:55:10.358Z,96.90
2019-02-25T02:57:58.093Z,96.80
2019-02-25T03:00:45.968Z,96.60
2019-02-25T03:03:33.314Z,96.40
2019-02-25T03:06:20.603Z,96.40
2019-02-25T03:09:11.289Z,96.50
2019-02-25T03:11:58.887Z,96.60
2019-02-25T03:14:46.880Z,96.60
2019-02-25T03:17:34.601Z,96.70
2019-02-25T03:20:22.278Z,96.90
2019-02-25T03:23:09.946Z,96.90
2019-02-25T03:25:57.655Z,96.70
2019-02-25T03:28:45.705Z,96.60
2019-02-25T03:31:33.666Z,96.50
2019-02-25T03:34:21.208Z,96.50
2019-02-25T03:37:09.242Z,96.50
2019-02-25T03:39:56.578Z,96.60
2019-02-25T03:42:44.232Z,96.70
2019-02-25T03:45:31.795Z,96.50
2019-02-25T03:48:19.032Z,96.70
2019-02-25T03:51:07.956Z,96.90
2019-02-25T03:53:56.237Z,96.90
2019-02-25T03:56:44.290Z,96.70
2019-02-25T03:59:32.015Z,96.70
2019-02-25T04:02:19.775Z,96.40
2019-02-25T04:05:07.921Z,96.60
2019-02-25T04:07:55.988Z,96.40
2019-02-25T04:10:43.958Z,96.30
2019-02-25T04:13:31.506Z,96.30
2019-02-25T04:16:18.814Z,96.20
2019-02-25T04:19:06.905Z,96.20
2019-02-25T04:21:54.920Z,96.20
2019-02-25T04:24:42.545Z,96.20
2019-02-25T04:27:30.147Z,96.30
2019-02-25T04:30:18.113Z,96.10
2019-02-25T04:33:05.887Z,96.20
2019-02-25T04:35:53.261Z,96.30
2019-02-25T04:38:41.228Z,96.20
2019-02-25T04:41:28.954Z,96.30
2019-02-25T04:44:16.607Z,96.40
2019-02-25T04:47:04.643Z,96.40
2019-02-25T04:49:52.517Z,96.30
2019-02-25T04:52:40.532Z,96.30
2019-02-25T04:55:28.313Z,96.40
2019-02-25T04:58:16.672Z,96.50
2019-02-25T05:01:04.680Z,96.60
2019-02-25T05:03:52.225Z,96.50
2019-02-25T05:06:39.908Z,96.80
2019-02-25T05:09:27.514Z,96.80
2019-02-25T05:12:15.305Z,96.70
2019-02-25T05:15:02.965Z,96.60
2019-02-25T05:17:50.894Z,96.60
2019-02-25T05:20:38.481Z,96.60
2019-02-25T05:23:26.179Z,96.70
2019-02-25T05:26:13.534Z,96.60
2019-02-25T05:29:01.187Z,96.60
2019-02-25T05:31:48.857Z,96.90
2019-02-25T05:34:36.339Z,96.50
2019-02-25T05:37:24.038Z,96.50
2019-02-25T05:40:13.983Z,96.50
2019-02-25T05:43:01.812Z,96.70
2019-02-25T05:45:49.702Z,96.60
2019-02-25T05:48:37.160Z,96.70
2019-02-25T05:51:24.996Z,96.80
2019-02-25T05:54:12.703Z,96.70
2019-02-25T05:57:00.557Z,96.90
2019-02-25T05:59:48.433Z,96.90
2019-02-25T06:02:36.269Z,96.90
2019-02-25T06:05:24.199Z,96.80
2019-02-25T06:08:12.139Z,96.60
2019-02-25T06:10:59.957Z,96.50
2019-02-25T06:13:47.136Z,96.50
2019-02-25T06:16:35.102Z,96.70
2019-02-25T06:19:22.720Z,96.80
2019-02-25T06:22:10.345Z,97.00
2019-02-25T06:24:58.214Z,97.30
2019-02-25T06:27:46.190Z,96.90
2019-02-25T06:30:34.019Z,97.50
2019-02-25T06:33:21.754Z,97.90
2019-02-25T06:36:09.291Z,98.70
2019-02-25T06:38:57.128Z,99.00
2019-02-25T06:41:44.826Z,99.30
2019-02-25T06:44:32.452Z,99.20
2019-02-25T06:47:19.906Z,99.20
2019-02-25T06:50:07.858Z,99.20
2019-02-25T06:52:55.802Z,99.10
2019-02-25T06:55:43.264Z,98.90
2019-02-25T06:58:30.628Z,98.70
2019-02-25T07:01:18.022Z,98.70
2019-02-25T07:04:16.264Z,98.50
2019-02-25T07:07:07.422Z,98.50
2019-02-25T07:10:22.795Z,98.40
2019-02-25T07:13:15.445Z,98.50
2019-02-25T07:16:10.775Z,98.40
2019-02-25T07:19:32.638Z,98.10
2019-02-25T07:22:42.143Z,97.90
2019-02-25T07:25:39.125Z,97.70
2019-02-25T07:28:58.529Z,97.50
2019-02-25T07:32:11.144Z,97.40
2019-02-25T07:35:19.733Z,97.30
2019-02-25T07:38:39.198Z,97.30
2019-02-25T07:41:38.213Z,97.00
2019-02-25T07:44:48.376Z,97.20
2019-02-25T07:47:53.692Z,97.20
2019-02-25T07:51:00.313Z,97.10
2019-02-25T07:53:54.238Z,96.80
2019-02-25T07:56:58.553Z,96.60
2019-02-25T08:00:05.224Z,96.40
2019-02-25T08:03:10.971Z,96.20
2019-02-25T08:06:17.368Z,96.10
2019-02-25T08:09:17.186Z,95.60
2019-02-25T08:12:12.791Z,95.50
2019-02-25T08:15:34.727Z,95.20
2019-02-25T08:18:30.835Z,95.10
2019-02-25T08:21:41.916Z,94.80
2019-02-25T08:24:54.760Z,94.20
2019-02-25T08:27:49.553Z,94.30
2019-02-25T08:31:02.268Z,93.90
2019-02-25T08:33:58.087Z,93.50
2019-02-25T08:37:24.969Z,93.40
2019-02-25T08:40:51.392Z,93.20
2019-02-25T08:43:57.409Z,92.70
2019-02-25T08:46:59.505Z,92.30
2019-02-25T08:49:50.505Z,91.80
2019-02-25T08:52:38.517Z,91.90
2019-02-25T08:55:26.093Z,91.10
2019-02-25T08:58:13.773Z,91.40
2019-02-25T09:01:02.129Z,90.90
2019-02-25T09:03:50.170Z,90.20
2019-02-25T09:06:38.045Z,90.00
2019-02-25T09:09:25.926Z,90.30
2019-02-25T09:12:13.693Z,90.40
2019-02-25T09:15:01.362Z,90.30
2019-02-25T09:17:47.612Z,90.70
2019-02-25T09:20:35.205Z,90.60
2019-02-25T09:23:22.770Z,90.20
2019-02-25T09:26:11.898Z,88.70
2019-02-25T09:29:00.117Z,87.90
2019-02-25T09:31:47.379Z,88.10
2019-02-25T09:34:34.860Z,87.30
2019-02-25T09:37:22.413Z,87.20
2019-02-25T09:40:12.092Z,86.70
2019-02-25T09:42:59.766Z,85.20
2019-02-25T09:45:47.076Z,84.30
2019-02-25T09:48:34.653Z,84.20
2019-02-25T09:51:22.025Z,86.00
2019-02-25T09:54:09.614Z,85.10
2019-02-25T09:56:57.141Z,83.80
2019-02-25T09:59:45.050Z,83.60
2019-02-25T10:02:32.753Z,82.90
2019-02-25T10:05:20.959Z,83.00
2019-02-25T10:08:08.511Z,83.00
2019-02-25T10:10:56.338Z,83.20
2019-02-25T10:13:44.182Z,82.40
2019-02-25T10:16:31.714Z,82.70
2019-02-25T10:19:19.397Z,79.70
2019-02-25T10:22:07.242Z,79.50
2019-02-25T10:24:54.580Z,77.60
2019-02-25T10:27:41.801Z,80.10
2019-02-25T10:30:29.736Z,79.80
2019-02-25T10:33:17.445Z,79.50
2019-02-25T10:36:04.791Z,80.10
2019-02-25T10:38:52.633Z,77.60
2019-02-25T10:41:40.262Z,77.40
2019-02-25T10:44:27.591Z,75.80
2019-02-25T10:47:16.927Z,74.00
2019-02-25T10:50:05.418Z,75.30
2019-02-25T10:53:03.024Z,75.90
2019-02-25T10:55:50.944Z,74.80
2019-02-25T10:58:39.555Z,75.50
2019-02-25T11:01:26.993Z,74.80
2019-02-25T11:04:15.362Z,74.80
2019-02-25T11:07:05.081Z,76.10
2019-02-25T11:10:07.192Z,75.70
2019-02-25T11:12:57.482Z,75.50
2019-02-25T11:15:47.816Z,74.60
2019-02-25T11:18:34.332Z,72.40
2019-02-25T11:21:22.204Z,73.10
2019-02-25T11:24:10.187Z,73.80
2019-02-25T11:26:59.052Z,73.00
2019-02-25T11:29:48.474Z,74.00
2019-02-25T11:32:36.159Z,74.90
2019-02-25T11:35:23.852Z,77.30
2019-02-25T11:38:11.749Z,75.70
2019-02-25T11:41:01.918Z,73.90
2019-02-25T11:43:50.982Z,74.90
2019-02-25T11:46:38.495Z,75.40
2019-02-25T11:49:25.808Z,74.70
2019-02-25T11:52:13.609Z,74.40
2019-02-25T11:55:01.410Z,74.10
2019-02-25T11:57:48.661Z,74.40
2019-02-25T12:00:36.427Z,72.60
2019-02-25T12:03:23.935Z,72.80
2019-02-25T12:06:11.783Z,72.80
2019-02-25T12:08:59.099Z,72.40
2019-02-25T12:11:46.930Z,73.10
2019-02-25T12:14:34.720Z,72.80
2019-02-25T12:17:22.031Z,73.50
2019-02-25T12:20:11.050Z,72.10
2019-02-25T12:22:58.637Z,70.60
2019-02-25T12:25:46.593Z,71.10
2019-02-25T12:28:34.344Z,69.70
2019-02-25T12:31:22.231Z,69.40
2019-02-25T12:34:10.185Z,68.90
2019-02-25T12:36:57.500Z,70.50
2019-02-25T12:39:45.039Z,71.60
2019-02-25T12:42:32.590Z,72.20
2019-02-25T12:45:20.180Z,71.50
2019-02-25T12:48:08.137Z,71.70
2019-02-25T12:50:55.843Z,71.90
2019-02-25T12:53:43.330Z,72.10
2019-02-25T12:56:31.046Z,70.80
2019-02-25T12:59:18.761Z,71.90
2019-02-25T13:02:06.234Z,71.30
2019-02-25T13:04:54.632Z,71.10
2019-02-25T13:07:42.173Z,71.10
2019-02-25T13:10:29.809Z,71.40
2019-02-25T13:13:17.066Z,71.00
2019-02-25T13:16:04.848Z,71.00
2019-02-25T13:18:52.676Z,70.40
2019-02-25T13:21:40.704Z,71.00
2019-02-25T13:24:30.310Z,71.60
2019-02-25T13:27:18.374Z,70.20
2019-02-25T13:30:08.197Z,70.50
2019-02-25T13:32:55.733Z,71.00
2019-02-25T13:35:43.306Z,69.70
2019-02-25T13:38:31.539Z,68.90
2019-02-25T13:41:19.615Z,68.30
2019-02-25T13:44:07.340Z,68.50
2019-02-25T13:46:55.150Z,68.50
2019-02-25T13:49:42.913Z,68.80
2019-02-25T13:52:30.588Z,68.30
2019-02-25T13:55:18.401Z,68.20
2019-02-25T13:58:06.456Z,68.20
2019-02-25T14:00:54.500Z,67.50
2019-02-25T14:03:42.324Z,67.10
2019-02-25T14:06:30.297Z,66.60
2019-02-25T14:09:18.006Z,67.70
2019-02-25T14:12:05.514Z,67.20
2019-02-25T14:14:53.300Z,66.20
2019-02-25T14:17:41.131Z,66.50
2019-02-25T14:20:28.890Z,66.00
2019-02-25T14:23:18.425Z,66.70
2019-02-25T14:26:05.876Z,66.50
2019-02-25T14:28:53.407Z,66.50
2019-02-25T14:31:41.340Z,66.20
2019-02-25T14:34:29.212Z,65.70
2019-02-25T14:37:20.457Z,66.50
2019-02-25T14:40:14.530Z,66.40
2019-02-25T14:43:00.612Z,65.40
2019-02-25T14:45:53.126Z,65.30
2019-02-25T14:48:38.309Z,65.80
2019-02-25T14:51:26.013Z,66.80
2019-02-25T14:54:13.721Z,66.50
2019-02-25T14:57:01.489Z,66.80
2019-02-25T14:59:49.359Z,66.90
2019-02-25T15:02:38.680Z,67.10
2019-02-25T15:05:27.167Z,67.60
2019-02-25T15:08:14.651Z,67.60
2019-02-25T15:11:02.893Z,67.70
2019-02-25T15:13:51.510Z,67.30
2019-02-25T15:16:39.201Z,66.90
2019-02-25T15:19:27.875Z,63.50
2019-02-25T15:22:16.141Z,64.80
2019-02-25T15:25:04.778Z,66.10
2019-02-25T15:27:52.487Z,66.80
2019-02-25T15:30:40.169Z,66.90
2019-02-25T15:33:27.924Z,67.20
2019-02-25T15:36:17.767Z,67.40
2019-02-25T15:39:07.269Z,67.70
2019-02-25T15:41:55.073Z,67.20
2019-02-25T15:44:44.514Z,66.80
2019-02-25T15:47:32.115Z,67.30
2019-02-25T15:50:19.876Z,66.40
2019-02-25T15:53:09.917Z,66.80
2019-02-25T15:55:59.388Z,67.00
2019-02-25T15:58:48.410Z,67.10
2019-02-25T16:01:35.849Z,67.30
2019-02-25T16:04:25.506Z,67.30
2019-02-25T16:07:13.580Z,67.60
2019-02-25T16:10:04.946Z,68.40
2019-02-25T16:12:55.772Z,68.00
2019-02-25T16:15:41.431Z,68.50
2019-02-25T16:18:29.056Z,69.10
2019-02-25T16:21:17.069Z,69.80
2019-02-25T16:24:08.160Z,69.60
2019-02-25T16:26:56.270Z,69.40
2019-02-25T16:29:44.350Z,69.70
2019-02-25T16:32:32.214Z,70.20
2019-02-25T16:35:21.024Z,70.30
2019-02-25T16:38:09.019Z,70.30
2019-02-25T16:40:57.047Z,70.60
2019-02-25T16:43:45.983Z,71.00
2019-02-25T16:46:36.550Z,71.30
2019-02-25T16:49:23.434Z,71.60
2019-02-25T16:52:11.319Z,72.00
2019-02-25T16:54:59.094Z,72.40
2019-02-25T16:57:47.815Z,72.70
2019-02-25T17:00:37.255Z,73.90
2019-02-25T17:03:24.881Z,74.50
2019-02-25T17:06:14.034Z,75.20
2019-02-25T17:09:01.753Z,75.60
2019-02-25T17:11:49.377Z,76.40
2019-02-25T17:14:40.077Z,76.90
2019-02-25T17:17:26.861Z,78.00
2019-02-25T17:20:15.553Z,78.40
2019-02-25T17:23:03.874Z,80.00
2019-02-25T17:25:52.164Z,79.30
2019-02-25T17:28:40.021Z,79.70
2019-02-25T17:31:30.039Z,80.20
2019-02-25T17:34:19.217Z,81.00
2019-02-25T17:37:08.123Z,81.30
2019-02-25T17:39:58.443Z,81.60
2019-02-25T17:42:47.351Z,81.30
2019-02-25T17:45:36.879Z,81.40
2019-02-25T17:48:23.895Z,81.40
2019-02-25T17:51:11.572Z,82.60
2019-02-25T17:53:58.846Z,83.40
2019-02-25T17:56:47.472Z,83.80
2019-02-25T17:59:36.298Z,83.90
2019-02-25T18:02:24.495Z,85.10
2019-02-25T18:05:14.112Z,86.00
2019-02-25T18:08:02.905Z,87.20
2019-02-25T18:10:51.861Z,87.90
2019-02-25T18:13:39.917Z,85.90
2019-02-25T18:16:27.767Z,86.00
2019-02-25T18:19:15.910Z,86.90
2019-02-25T18:22:04.454Z,87.60
2019-02-25T18:24:52.173Z,87.60
2019-02-25T18:27:41.442Z,87.60
2019-02-25T18:30:29.988Z,87.40
2019-02-25T18:33:20.395Z,87.60
2019-02-25T18:36:08.854Z,88.90
2019-02-25T18:38:56.767Z,89.70
2019-02-25T18:41:46.093Z,90.00
2019-02-25T18:44:34.073Z,90.50
2019-02-25T18:47:23.433Z,90.80
2019-02-25T18:50:15.194Z,91.20
2019-02-25T18:53:02.743Z,91.20
2019-02-25T18:55:51.806Z,91.20
2019-02-25T18:58:41.247Z,91.20
2019-02-25T19:01:29.498Z,91.00
2019-02-25T19:04:19.276Z,91.20
2019-02-25T19:07:08.311Z,91.50
2019-02-25T19:09:58.091Z,91.90
2019-02-25T19:12:45.957Z,91.90
2019-02-25T19:15:35.010Z,91.90
2019-02-25T19:18:22.956Z,91.90
2019-02-25T19:21:10.957Z,91.80
2019-02-25T19:23:59.260Z,91.90
2019-02-25T19:26:48.593Z,92.30
2019-02-25T19:29:36.192Z,92.60
2019-02-25T19:32:23.714Z,92.90
2019-02-25T19:35:12.103Z,93.20
2019-02-25T19:38:03.186Z,93.10
2019-02-25T19:40:51.311Z,92.80
2019-02-25T19:43:38.052Z,92.70
2019-02-25T19:46:26.140Z,92.80
2019-02-25T19:49:15.987Z,92.80
2019-02-25T19:52:04.858Z,92.80
2019-02-25T19:54:53.468Z,93.10
2019-02-25T19:57:42.451Z,93.20
2019-02-25T20:00:33.110Z,93.40
2019-02-25T20:03:19.980Z,93.50
2019-02-25T20:06:11.208Z,93.50
2019-02-25T20:08:58.286Z,93.60
2019-02-25T20:11:46.701Z,93.60
2019-02-25T20:14:34.092Z,93.70
2019-02-25T20:17:25.949Z,93.80
2019-02-25T20:20:12.842Z,93.80
2019-02-25T20:23:02.131Z,93.70
2019-02-25T20:25:51.229Z,93.90
2019-02-25T20:28:41.319Z,94.10
2019-02-25T20:31:29.809Z,94.40
2019-02-25T20:34:20.542Z,94.70
2019-02-25T20:37:07.110Z,95.10
2019-02-25T20:39:54.739Z,94.80
2019-02-25T20:42:44.451Z,94.60
2019-02-25T20:45:33.252Z,94.50
2019-02-25T20:48:21.213Z,94.40
2019-02-25T20:51:10.212Z,94.20
2019-02-25T20:53:58.097Z,94.20
2019-02-25T20:56:46.815Z,94.30
2019-02-25T20:59:35.795Z,94.50
2019-02-25T21:02:24.048Z,95.00
2019-02-25T21:05:14.732Z,95.10
2019-02-25T21:08:01.921Z,95.30
2019-02-25T21:10:50.380Z,95.40
2019-02-25T21:13:38.489Z,95.30
2019-02-25T21:16:28.443Z,95.30
2019-02-25T21:19:18.389Z,95.40
2019-02-25T21:22:07.232Z,95.40
2019-02-25T21:24:55.892Z,95.50
2019-02-25T21:27:44.562Z,95.50
2019-02-25T21:30:32.468Z,95.60
2019-02-25T21:33:25.900Z,95.50
2019-02-25T21:36:13.752Z,95.70
2019-02-25T21:39:01.028Z,96.10
2019-02-25T21:41:48.649Z,96.30
2019-02-25T21:44:36.777Z,96.30
2019-02-25T21:47:26.345Z,96.20
2019-02-25T21:50:14.818Z,96.20
2019-02-25T21:53:04.196Z,96.10
2019-02-25T21:55:53.498Z,96.00
2019-02-25T21:58:42.898Z,95.80
2019-02-25T22:01:32.163Z,95.90
2019-02-25T22:04:20.359Z,96.30
2019-02-25T22:07:09.225Z,96.10
2019-02-25T22:09:56.835Z,96.20
2019-02-25T22:12:44.637Z,96.10
2019-02-25T22:15:34.057Z,96.00
2019-02-25T22:18:21.629Z,96.10
2019-02-25T22:21:11.635Z,95.90
2019-02-25T22:24:02.656Z,95.90
2019-02-25T22:26:49.971Z,96.00
2019-02-25T22:29:38.636Z,96.00
2019-02-25T22:32:26.845Z,95.90
2019-02-25T22:35:15.905Z,95.90
2019-02-25T22:38:03.868Z,96.10
2019-02-25T22:40:53.628Z,96.30
2019-02-25T22:43:43.167Z,96.20
2019-02-25T22:46:32.541Z,96.30
2019-02-25T22:49:19.572Z,96.30
2019-02-25T22:52:07.500Z,96.40
2019-02-25T22:54:55.431Z,96.40
2019-02-25T22:57:45.697Z,96.40
2019-02-25T23:00:42.166Z,96.40
2019-02-25T23:03:29.505Z,96.10
2019-02-25T23:06:18.311Z,96.00
2019-02-25T23:09:12.249Z,95.80
2019-02-25T23:11:58.842Z,95.90
2019-02-25T23:14:46.677Z,96.10
2019-02-25T23:17:37.136Z,96.20
2019-02-25T23:20:25.248Z,96.30
2019-02-25T23:23:13.585Z,96.40
2019-02-25T23:26:02.197Z,96.50
2019-02-25T23:28:51.064Z,96.40
2019-02-25T23:31:39.591Z,96.60
2019-02-25T23:34:27.497Z,96.50
2019-02-25T23:37:16.996Z,96.50
2019-02-25T23:40:07.318Z,96.50
2019-02-25T23:42:54.255Z,96.70
2019-02-25T23:45:44.211Z,96.80
2019-02-25T23:48:33.737Z,97.00
2019-02-25T23:51:21.687Z,96.90
2019-02-25T23:54:12.124Z,97.10
2019-02-25T23:57:00.184Z,97.00
2019-02-25T23:59:48.883Z,96.80
